sensor_id;sensor_type;location;lat;lon;timestamp;P1;durP1;ratioP1;P2;durP2;ratioP2
78156;SDS011;67400;49.360;8.266;2023-03-19T00:00:10;11.82;;;6.07;;
78156;SDS011;67400;49.360;8.266;2023-03-19T00:01:31;15.65;;;6.28;;
78156;SDS011;67400;49.360;8.266;2023-03-19T00:02:50;11.98;;;5.85;;
78156;SDS011;67400;49.360;8.266;2023-03-19T00:04:10;17.33;;;6.60;;
78156;SDS011;67400;49.360;8.266;2023-03-19T00:05:29;10.18;;;6.63;;
78156;SDS011;67400;49.360;8.266;2023-03-19T00:06:49;12.65;;;6.35;;
78156;SDS011;67400;49.360;8.266;2023-03-19T00:08:08;14.38;;;6.57;;
78156;SDS011;67400;49.360;8.266;2023-03-19T00:09:28;10.93;;;5.30;;
78156;SDS011;67400;49.360;8.266;2023-03-19T00:10:48;15.93;;;5.97;;
78156;SDS011;67400;49.360;8.266;2023-03-19T00:12:08;12.38;;;5.68;;
78156;SDS011;67400;49.360;8.266;2023-03-19T00:13:27;13.20;;;5.45;;
78156;SDS011;67400;49.360;8.266;2023-03-19T00:14:47;17.33;;;5.57;;
78156;SDS011;67400;49.360;8.266;2023-03-19T00:16:06;12.23;;;5.32;;
78156;SDS011;67400;49.360;8.266;2023-03-19T00:17:26;12.23;;;5.57;;
78156;SDS011;67400;49.360;8.266;2023-03-19T00:18:46;11.88;;;5.13;;
78156;SDS011;67400;49.360;8.266;2023-03-19T00:20:07;12.45;;;5.25;;
78156;SDS011;67400;49.360;8.266;2023-03-19T00:21:27;12.90;;;5.93;;
78156;SDS011;67400;49.360;8.266;2023-03-19T00:22:47;11.63;;;5.60;;
78156;SDS011;67400;49.360;8.266;2023-03-19T00:24:07;10.68;;;5.63;;
78156;SDS011;67400;49.360;8.266;2023-03-19T00:25:27;12.98;;;6.75;;
78156;SDS011;67400;49.360;8.266;2023-03-19T00:26:47;12.48;;;6.22;;
78156;SDS011;67400;49.360;8.266;2023-03-19T00:28:06;9.48;;;5.65;;
78156;SDS011;67400;49.360;8.266;2023-03-19T00:29:26;10.70;;;6.10;;
78156;SDS011;67400;49.360;8.266;2023-03-19T00:30:46;12.00;;;6.05;;
78156;SDS011;67400;49.360;8.266;2023-03-19T00:32:06;15.68;;;6.35;;
78156;SDS011;67400;49.360;8.266;2023-03-19T00:33:26;13.43;;;6.35;;
78156;SDS011;67400;49.360;8.266;2023-03-19T00:34:46;13.45;;;6.85;;
78156;SDS011;67400;49.360;8.266;2023-03-19T00:36:06;12.18;;;6.03;;
78156;SDS011;67400;49.360;8.266;2023-03-19T00:37:26;14.52;;;6.93;;
78156;SDS011;67400;49.360;8.266;2023-03-19T00:38:47;13.05;;;6.80;;
78156;SDS011;67400;49.360;8.266;2023-03-19T00:40:07;13.40;;;6.70;;
78156;SDS011;67400;49.360;8.266;2023-03-19T00:41:28;14.13;;;6.45;;
78156;SDS011;67400;49.360;8.266;2023-03-19T00:42:47;16.33;;;7.47;;
78156;SDS011;67400;49.360;8.266;2023-03-19T00:44:07;14.32;;;6.95;;
78156;SDS011;67400;49.360;8.266;2023-03-19T00:45:27;13.88;;;6.40;;
78156;SDS011;67400;49.360;8.266;2023-03-19T00:46:48;13.23;;;6.53;;
78156;SDS011;67400;49.360;8.266;2023-03-19T00:48:07;17.38;;;6.63;;
78156;SDS011;67400;49.360;8.266;2023-03-19T00:49:27;12.52;;;6.40;;
78156;SDS011;67400;49.360;8.266;2023-03-19T00:50:47;12.10;;;6.15;;
78156;SDS011;67400;49.360;8.266;2023-03-19T00:52:07;14.63;;;5.60;;
78156;SDS011;67400;49.360;8.266;2023-03-19T00:53:26;11.60;;;5.55;;
78156;SDS011;67400;49.360;8.266;2023-03-19T00:54:46;8.98;;;6.10;;
78156;SDS011;67400;49.360;8.266;2023-03-19T00:56:06;12.52;;;5.70;;
78156;SDS011;67400;49.360;8.266;2023-03-19T00:57:26;10.63;;;5.40;;
78156;SDS011;67400;49.360;8.266;2023-03-19T00:58:46;9.27;;;5.60;;
78156;SDS011;67400;49.360;8.266;2023-03-19T01:00:05;10.85;;;5.45;;
78156;SDS011;67400;49.360;8.266;2023-03-19T01:01:26;13.85;;;5.45;;
78156;SDS011;67400;49.360;8.266;2023-03-19T01:02:46;13.18;;;5.03;;
78156;SDS011;67400;49.360;8.266;2023-03-19T01:04:06;12.48;;;5.97;;
78156;SDS011;67400;49.360;8.266;2023-03-19T01:05:26;11.90;;;5.75;;
78156;SDS011;67400;49.360;8.266;2023-03-19T01:06:47;13.00;;;5.20;;
78156;SDS011;67400;49.360;8.266;2023-03-19T01:08:06;10.82;;;5.43;;
78156;SDS011;67400;49.360;8.266;2023-03-19T01:09:26;8.55;;;4.82;;
78156;SDS011;67400;49.360;8.266;2023-03-19T01:10:46;11.32;;;4.72;;
78156;SDS011;67400;49.360;8.266;2023-03-19T01:12:06;10.73;;;5.10;;
78156;SDS011;67400;49.360;8.266;2023-03-19T01:13:26;11.70;;;5.28;;
78156;SDS011;67400;49.360;8.266;2023-03-19T01:14:46;12.85;;;5.15;;
78156;SDS011;67400;49.360;8.266;2023-03-19T01:16:05;12.30;;;5.18;;
78156;SDS011;67400;49.360;8.266;2023-03-19T01:17:25;12.00;;;5.20;;
78156;SDS011;67400;49.360;8.266;2023-03-19T01:18:45;15.60;;;5.72;;
78156;SDS011;67400;49.360;8.266;2023-03-19T01:20:05;8.35;;;4.68;;
78156;SDS011;67400;49.360;8.266;2023-03-19T01:21:31;7.30;;;3.92;;
78156;SDS011;67400;49.360;8.266;2023-03-19T01:22:51;7.50;;;3.80;;
78156;SDS011;67400;49.360;8.266;2023-03-19T01:24:11;8.18;;;4.15;;
78156;SDS011;67400;49.360;8.266;2023-03-19T01:25:31;7.22;;;4.10;;
78156;SDS011;67400;49.360;8.266;2023-03-19T01:26:56;7.00;;;4.47;;
78156;SDS011;67400;49.360;8.266;2023-03-19T01:28:24;9.30;;;4.45;;
78156;SDS011;67400;49.360;8.266;2023-03-19T01:29:44;9.77;;;4.20;;
78156;SDS011;67400;49.360;8.266;2023-03-19T01:31:09;7.05;;;3.60;;
78156;SDS011;67400;49.360;8.266;2023-03-19T01:32:47;8.18;;;3.92;;
78156;SDS011;67400;49.360;8.266;2023-03-19T01:34:23;8.20;;;3.72;;
78156;SDS011;67400;49.360;8.266;2023-03-19T01:35:47;9.07;;;3.85;;
78156;SDS011;67400;49.360;8.266;2023-03-19T01:37:08;8.70;;;3.83;;
78156;SDS011;67400;49.360;8.266;2023-03-19T01:38:29;8.52;;;3.92;;
78156;SDS011;67400;49.360;8.266;2023-03-19T01:39:54;7.45;;;4.22;;
78156;SDS011;67400;49.360;8.266;2023-03-19T01:41:14;6.13;;;3.47;;
78156;SDS011;67400;49.360;8.266;2023-03-19T01:42:34;8.80;;;4.30;;
78156;SDS011;67400;49.360;8.266;2023-03-19T01:44:30;8.68;;;4.07;;
78156;SDS011;67400;49.360;8.266;2023-03-19T01:47:55;6.65;;;3.72;;
78156;SDS011;67400;49.360;8.266;2023-03-19T01:49:22;8.18;;;4.05;;
78156;SDS011;67400;49.360;8.266;2023-03-19T01:50:53;11.00;;;4.32;;
78156;SDS011;67400;49.360;8.266;2023-03-19T01:52:17;8.90;;;4.22;;
78156;SDS011;67400;49.360;8.266;2023-03-19T01:53:57;10.38;;;4.03;;
78156;SDS011;67400;49.360;8.266;2023-03-19T01:55:38;8.68;;;4.93;;
78156;SDS011;67400;49.360;8.266;2023-03-19T01:57:14;6.65;;;3.88;;
78156;SDS011;67400;49.360;8.266;2023-03-19T01:58:56;7.82;;;3.88;;
78156;SDS011;67400;49.360;8.266;2023-03-19T02:00:36;10.07;;;4.70;;
78156;SDS011;67400;49.360;8.266;2023-03-19T02:01:58;6.05;;;3.70;;
78156;SDS011;67400;49.360;8.266;2023-03-19T02:03:19;8.30;;;3.53;;
78156;SDS011;67400;49.360;8.266;2023-03-19T02:04:51;8.40;;;3.65;;
78156;SDS011;67400;49.360;8.266;2023-03-19T02:06:12;9.93;;;3.55;;
78156;SDS011;67400;49.360;8.266;2023-03-19T02:07:33;12.07;;;3.92;;
78156;SDS011;67400;49.360;8.266;2023-03-19T02:08:53;9.05;;;3.70;;
78156;SDS011;67400;49.360;8.266;2023-03-19T02:10:14;9.45;;;4.07;;
78156;SDS011;67400;49.360;8.266;2023-03-19T02:11:35;5.65;;;3.50;;
78156;SDS011;67400;49.360;8.266;2023-03-19T02:12:55;7.95;;;3.72;;
78156;SDS011;67400;49.360;8.266;2023-03-19T02:14:15;9.05;;;4.13;;
78156;SDS011;67400;49.360;8.266;2023-03-19T02:15:35;10.40;;;4.00;;
78156;SDS011;67400;49.360;8.266;2023-03-19T02:16:54;8.35;;;3.97;;
78156;SDS011;67400;49.360;8.266;2023-03-19T02:18:15;10.20;;;4.35;;
78156;SDS011;67400;49.360;8.266;2023-03-19T02:21:10;8.75;;;3.38;;
78156;SDS011;67400;49.360;8.266;2023-03-19T02:22:31;8.55;;;3.90;;
78156;SDS011;67400;49.360;8.266;2023-03-19T02:23:53;7.10;;;3.92;;
78156;SDS011;67400;49.360;8.266;2023-03-19T02:25:40;5.80;;;3.03;;
78156;SDS011;67400;49.360;8.266;2023-03-19T02:27:02;7.30;;;3.75;;
78156;SDS011;67400;49.360;8.266;2023-03-19T02:28:23;8.27;;;3.70;;
78156;SDS011;67400;49.360;8.266;2023-03-19T02:29:45;7.30;;;3.50;;
78156;SDS011;67400;49.360;8.266;2023-03-19T02:31:05;6.22;;;3.33;;
78156;SDS011;67400;49.360;8.266;2023-03-19T02:32:25;6.38;;;3.38;;
78156;SDS011;67400;49.360;8.266;2023-03-19T02:33:55;8.15;;;3.50;;
78156;SDS011;67400;49.360;8.266;2023-03-19T02:35:15;4.68;;;3.03;;
78156;SDS011;67400;49.360;8.266;2023-03-19T02:36:36;6.10;;;3.22;;
78156;SDS011;67400;49.360;8.266;2023-03-19T02:37:57;6.38;;;3.10;;
78156;SDS011;67400;49.360;8.266;2023-03-19T02:39:29;6.72;;;3.08;;
78156;SDS011;67400;49.360;8.266;2023-03-19T02:41:00;5.97;;;2.95;;
78156;SDS011;67400;49.360;8.266;2023-03-19T02:42:20;4.97;;;3.00;;
78156;SDS011;67400;49.360;8.266;2023-03-19T02:43:41;8.57;;;3.90;;
78156;SDS011;67400;49.360;8.266;2023-03-19T02:45:00;5.60;;;2.85;;
78156;SDS011;67400;49.360;8.266;2023-03-19T02:46:20;8.65;;;3.03;;
78156;SDS011;67400;49.360;8.266;2023-03-19T02:47:40;7.40;;;2.92;;
78156;SDS011;67400;49.360;8.266;2023-03-19T02:48:59;7.43;;;3.20;;
78156;SDS011;67400;49.360;8.266;2023-03-19T02:50:19;6.32;;;3.22;;
78156;SDS011;67400;49.360;8.266;2023-03-19T02:51:39;6.00;;;2.95;;
78156;SDS011;67400;49.360;8.266;2023-03-19T02:52:59;4.97;;;2.70;;
78156;SDS011;67400;49.360;8.266;2023-03-19T02:54:19;5.78;;;2.60;;
78156;SDS011;67400;49.360;8.266;2023-03-19T02:55:40;7.05;;;3.38;;
78156;SDS011;67400;49.360;8.266;2023-03-19T02:56:59;6.20;;;3.08;;
78156;SDS011;67400;49.360;8.266;2023-03-19T02:58:19;8.10;;;3.33;;
78156;SDS011;67400;49.360;8.266;2023-03-19T02:59:39;9.18;;;3.22;;
78156;SDS011;67400;49.360;8.266;2023-03-19T03:00:58;8.80;;;3.75;;
78156;SDS011;67400;49.360;8.266;2023-03-19T03:02:19;5.60;;;3.45;;
78156;SDS011;67400;49.360;8.266;2023-03-19T03:03:40;8.68;;;3.35;;
78156;SDS011;67400;49.360;8.266;2023-03-19T03:05:00;7.97;;;3.60;;
78156;SDS011;67400;49.360;8.266;2023-03-19T03:06:20;7.07;;;3.47;;
78156;SDS011;67400;49.360;8.266;2023-03-19T03:07:39;6.38;;;3.55;;
78156;SDS011;67400;49.360;8.266;2023-03-19T03:09:00;9.63;;;3.55;;
78156;SDS011;67400;49.360;8.266;2023-03-19T03:10:20;6.35;;;3.55;;
78156;SDS011;67400;49.360;8.266;2023-03-19T03:11:40;7.72;;;3.80;;
78156;SDS011;67400;49.360;8.266;2023-03-19T03:13:01;5.78;;;3.17;;
78156;SDS011;67400;49.360;8.266;2023-03-19T03:14:20;6.57;;;3.58;;
78156;SDS011;67400;49.360;8.266;2023-03-19T03:15:40;9.77;;;3.88;;
78156;SDS011;67400;49.360;8.266;2023-03-19T03:17:00;5.97;;;3.97;;
78156;SDS011;67400;49.360;8.266;2023-03-19T03:18:20;7.20;;;3.70;;
78156;SDS011;67400;49.360;8.266;2023-03-19T03:19:39;8.98;;;3.50;;
78156;SDS011;67400;49.360;8.266;2023-03-19T03:20:59;6.93;;;3.40;;
78156;SDS011;67400;49.360;8.266;2023-03-19T03:22:19;6.82;;;3.70;;
78156;SDS011;67400;49.360;8.266;2023-03-19T03:23:39;7.60;;;3.55;;
78156;SDS011;67400;49.360;8.266;2023-03-19T03:24:58;6.22;;;3.63;;
78156;SDS011;67400;49.360;8.266;2023-03-19T03:26:18;5.45;;;3.22;;
78156;SDS011;67400;49.360;8.266;2023-03-19T03:27:39;9.77;;;3.55;;
78156;SDS011;67400;49.360;8.266;2023-03-19T03:28:58;8.63;;;3.88;;
78156;SDS011;67400;49.360;8.266;2023-03-19T03:30:18;9.40;;;3.75;;
78156;SDS011;67400;49.360;8.266;2023-03-19T03:31:38;7.90;;;3.67;;
78156;SDS011;67400;49.360;8.266;2023-03-19T03:32:58;5.85;;;3.25;;
78156;SDS011;67400;49.360;8.266;2023-03-19T03:34:18;6.95;;;3.95;;
78156;SDS011;67400;49.360;8.266;2023-03-19T03:35:37;6.80;;;3.75;;
78156;SDS011;67400;49.360;8.266;2023-03-19T03:36:57;8.75;;;3.92;;
78156;SDS011;67400;49.360;8.266;2023-03-19T03:38:17;8.48;;;3.55;;
78156;SDS011;67400;49.360;8.266;2023-03-19T03:39:37;9.82;;;3.70;;
78156;SDS011;67400;49.360;8.266;2023-03-19T03:40:57;10.95;;;4.57;;
78156;SDS011;67400;49.360;8.266;2023-03-19T03:42:18;9.18;;;3.85;;
78156;SDS011;67400;49.360;8.266;2023-03-19T03:43:38;7.35;;;4.07;;
78156;SDS011;67400;49.360;8.266;2023-03-19T03:44:59;9.35;;;3.60;;
78156;SDS011;67400;49.360;8.266;2023-03-19T03:46:19;8.18;;;3.60;;
78156;SDS011;67400;49.360;8.266;2023-03-19T03:47:41;8.93;;;3.88;;
78156;SDS011;67400;49.360;8.266;2023-03-19T03:49:01;7.82;;;4.07;;
78156;SDS011;67400;49.360;8.266;2023-03-19T03:50:21;6.40;;;3.35;;
78156;SDS011;67400;49.360;8.266;2023-03-19T03:51:44;8.23;;;4.07;;
78156;SDS011;67400;49.360;8.266;2023-03-19T03:53:04;11.38;;;3.80;;
78156;SDS011;67400;49.360;8.266;2023-03-19T03:54:24;8.38;;;4.20;;
78156;SDS011;67400;49.360;8.266;2023-03-19T03:55:44;7.90;;;3.50;;
78156;SDS011;67400;49.360;8.266;2023-03-19T03:57:04;6.38;;;3.63;;
78156;SDS011;67400;49.360;8.266;2023-03-19T03:58:24;10.45;;;3.83;;
78156;SDS011;67400;49.360;8.266;2023-03-19T03:59:44;9.48;;;4.03;;
78156;SDS011;67400;49.360;8.266;2023-03-19T04:01:04;10.60;;;4.25;;
78156;SDS011;67400;49.360;8.266;2023-03-19T04:02:25;9.48;;;3.97;;
78156;SDS011;67400;49.360;8.266;2023-03-19T04:03:45;9.45;;;3.65;;
78156;SDS011;67400;49.360;8.266;2023-03-19T04:05:06;7.85;;;3.92;;
78156;SDS011;67400;49.360;8.266;2023-03-19T04:06:25;7.47;;;3.72;;
78156;SDS011;67400;49.360;8.266;2023-03-19T04:08:06;10.30;;;3.97;;
78156;SDS011;67400;49.360;8.266;2023-03-19T04:09:26;6.60;;;3.60;;
78156;SDS011;67400;49.360;8.266;2023-03-19T04:10:46;6.93;;;4.00;;
78156;SDS011;67400;49.360;8.266;2023-03-19T04:12:06;7.18;;;3.75;;
78156;SDS011;67400;49.360;8.266;2023-03-19T04:13:26;8.45;;;3.88;;
78156;SDS011;67400;49.360;8.266;2023-03-19T04:14:46;8.98;;;3.88;;
78156;SDS011;67400;49.360;8.266;2023-03-19T04:16:06;8.95;;;3.95;;
78156;SDS011;67400;49.360;8.266;2023-03-19T04:17:27;7.68;;;3.97;;
78156;SDS011;67400;49.360;8.266;2023-03-19T04:18:46;6.15;;;3.67;;
78156;SDS011;67400;49.360;8.266;2023-03-19T04:20:07;6.18;;;3.45;;
78156;SDS011;67400;49.360;8.266;2023-03-19T04:21:26;11.85;;;4.43;;
78156;SDS011;67400;49.360;8.266;2023-03-19T04:22:47;8.05;;;3.72;;
78156;SDS011;67400;49.360;8.266;2023-03-19T04:24:07;10.48;;;4.68;;
78156;SDS011;67400;49.360;8.266;2023-03-19T04:25:28;9.48;;;3.67;;
78156;SDS011;67400;49.360;8.266;2023-03-19T04:26:49;5.32;;;3.30;;
78156;SDS011;67400;49.360;8.266;2023-03-19T04:28:10;9.95;;;4.25;;
78156;SDS011;67400;49.360;8.266;2023-03-19T04:29:30;7.05;;;4.05;;
78156;SDS011;67400;49.360;8.266;2023-03-19T04:30:51;10.00;;;3.83;;
78156;SDS011;67400;49.360;8.266;2023-03-19T04:32:12;8.70;;;4.30;;
78156;SDS011;67400;49.360;8.266;2023-03-19T04:33:32;8.30;;;4.45;;
78156;SDS011;67400;49.360;8.266;2023-03-19T04:34:52;14.35;;;4.28;;
78156;SDS011;67400;49.360;8.266;2023-03-19T04:36:12;9.07;;;4.72;;
78156;SDS011;67400;49.360;8.266;2023-03-19T04:37:33;8.05;;;4.13;;
78156;SDS011;67400;49.360;8.266;2023-03-19T04:38:52;7.45;;;4.05;;
78156;SDS011;67400;49.360;8.266;2023-03-19T04:40:13;8.55;;;4.50;;
78156;SDS011;67400;49.360;8.266;2023-03-19T04:41:34;8.65;;;4.20;;
78156;SDS011;67400;49.360;8.266;2023-03-19T04:44:33;9.50;;;4.45;;
78156;SDS011;67400;49.360;8.266;2023-03-19T04:45:54;8.63;;;4.20;;
78156;SDS011;67400;49.360;8.266;2023-03-19T04:47:14;7.05;;;3.65;;
78156;SDS011;67400;49.360;8.266;2023-03-19T04:48:44;7.60;;;4.05;;
78156;SDS011;67400;49.360;8.266;2023-03-19T04:50:05;8.13;;;3.97;;
78156;SDS011;67400;49.360;8.266;2023-03-19T04:51:26;7.43;;;4.03;;
78156;SDS011;67400;49.360;8.266;2023-03-19T04:52:46;10.20;;;4.07;;
78156;SDS011;67400;49.360;8.266;2023-03-19T04:54:07;8.68;;;4.30;;
78156;SDS011;67400;49.360;8.266;2023-03-19T04:55:27;8.55;;;4.00;;
78156;SDS011;67400;49.360;8.266;2023-03-19T04:56:56;8.40;;;4.03;;
78156;SDS011;67400;49.360;8.266;2023-03-19T04:58:20;10.25;;;4.10;;
78156;SDS011;67400;49.360;8.266;2023-03-19T04:59:47;7.72;;;4.30;;
78156;SDS011;67400;49.360;8.266;2023-03-19T05:01:08;9.95;;;4.35;;
78156;SDS011;67400;49.360;8.266;2023-03-19T05:02:47;9.75;;;5.10;;
78156;SDS011;67400;49.360;8.266;2023-03-19T05:04:07;8.55;;;4.30;;
78156;SDS011;67400;49.360;8.266;2023-03-19T05:05:29;8.63;;;4.40;;
78156;SDS011;67400;49.360;8.266;2023-03-19T05:06:49;8.32;;;3.85;;
78156;SDS011;67400;49.360;8.266;2023-03-19T05:08:09;8.65;;;4.22;;
78156;SDS011;67400;49.360;8.266;2023-03-19T05:09:31;10.20;;;4.82;;
78156;SDS011;67400;49.360;8.266;2023-03-19T05:10:51;10.68;;;4.70;;
78156;SDS011;67400;49.360;8.266;2023-03-19T05:12:11;8.02;;;4.20;;
78156;SDS011;67400;49.360;8.266;2023-03-19T05:13:36;7.55;;;4.30;;
78156;SDS011;67400;49.360;8.266;2023-03-19T05:14:55;9.27;;;4.43;;
78156;SDS011;67400;49.360;8.266;2023-03-19T05:16:25;10.02;;;4.68;;
78156;SDS011;67400;49.360;8.266;2023-03-19T05:17:46;7.05;;;3.83;;
78156;SDS011;67400;49.360;8.266;2023-03-19T05:19:13;8.48;;;4.57;;
78156;SDS011;67400;49.360;8.266;2023-03-19T05:20:34;7.35;;;3.92;;
78156;SDS011;67400;49.360;8.266;2023-03-19T05:21:57;10.30;;;4.32;;
78156;SDS011;67400;49.360;8.266;2023-03-19T05:23:18;6.13;;;4.25;;
78156;SDS011;67400;49.360;8.266;2023-03-19T05:24:47;10.45;;;4.80;;
78156;SDS011;67400;49.360;8.266;2023-03-19T05:26:07;8.23;;;4.35;;
78156;SDS011;67400;49.360;8.266;2023-03-19T05:28:05;10.00;;;4.30;;
78156;SDS011;67400;49.360;8.266;2023-03-19T05:29:26;8.02;;;4.55;;
78156;SDS011;67400;49.360;8.266;2023-03-19T05:31:08;9.25;;;4.35;;
78156;SDS011;67400;49.360;8.266;2023-03-19T05:33:55;8.25;;;4.30;;
78156;SDS011;67400;49.360;8.266;2023-03-19T05:35:16;9.50;;;4.03;;
78156;SDS011;67400;49.360;8.266;2023-03-19T05:36:36;9.02;;;4.22;;
78156;SDS011;67400;49.360;8.266;2023-03-19T05:38:06;7.63;;;3.80;;
78156;SDS011;67400;49.360;8.266;2023-03-19T05:39:28;8.70;;;4.15;;
78156;SDS011;67400;49.360;8.266;2023-03-19T05:40:52;7.18;;;4.18;;
78156;SDS011;67400;49.360;8.266;2023-03-19T05:42:18;6.80;;;3.40;;
78156;SDS011;67400;49.360;8.266;2023-03-19T05:43:38;10.10;;;4.47;;
78156;SDS011;67400;49.360;8.266;2023-03-19T05:45:02;9.63;;;3.97;;
78156;SDS011;67400;49.360;8.266;2023-03-19T05:46:31;6.35;;;3.80;;
78156;SDS011;67400;49.360;8.266;2023-03-19T05:47:51;7.82;;;3.88;;
78156;SDS011;67400;49.360;8.266;2023-03-19T05:49:12;8.55;;;4.20;;
78156;SDS011;67400;49.360;8.266;2023-03-19T05:50:33;7.95;;;4.43;;
78156;SDS011;67400;49.360;8.266;2023-03-19T05:52:03;6.85;;;4.20;;
78156;SDS011;67400;49.360;8.266;2023-03-19T05:53:23;7.93;;;3.88;;
78156;SDS011;67400;49.360;8.266;2023-03-19T05:54:59;9.43;;;4.03;;
78156;SDS011;67400;49.360;8.266;2023-03-19T05:56:30;7.70;;;4.57;;
78156;SDS011;67400;49.360;8.266;2023-03-19T05:58:06;8.95;;;4.28;;
78156;SDS011;67400;49.360;8.266;2023-03-19T05:59:26;10.05;;;4.63;;
78156;SDS011;67400;49.360;8.266;2023-03-19T06:01:00;11.48;;;4.55;;
78156;SDS011;67400;49.360;8.266;2023-03-19T06:02:21;6.97;;;3.90;;
78156;SDS011;67400;49.360;8.266;2023-03-19T06:03:47;9.10;;;4.88;;
78156;SDS011;67400;49.360;8.266;2023-03-19T06:05:07;6.97;;;3.95;;
78156;SDS011;67400;49.360;8.266;2023-03-19T06:06:27;8.88;;;4.78;;
78156;SDS011;67400;49.360;8.266;2023-03-19T06:07:47;7.95;;;4.40;;
78156;SDS011;67400;49.360;8.266;2023-03-19T06:09:16;8.48;;;4.55;;
78156;SDS011;67400;49.360;8.266;2023-03-19T06:10:41;7.75;;;4.50;;
78156;SDS011;67400;49.360;8.266;2023-03-19T06:12:03;9.93;;;4.38;;
78156;SDS011;67400;49.360;8.266;2023-03-19T06:13:41;9.45;;;4.25;;
78156;SDS011;67400;49.360;8.266;2023-03-19T06:15:05;10.73;;;4.53;;
78156;SDS011;67400;49.360;8.266;2023-03-19T06:16:48;12.18;;;4.40;;
78156;SDS011;67400;49.360;8.266;2023-03-19T06:18:08;10.60;;;4.57;;
78156;SDS011;67400;49.360;8.266;2023-03-19T06:19:28;8.98;;;4.07;;
78156;SDS011;67400;49.360;8.266;2023-03-19T06:20:47;11.02;;;4.45;;
78156;SDS011;67400;49.360;8.266;2023-03-19T06:22:09;8.70;;;3.92;;
78156;SDS011;67400;49.360;8.266;2023-03-19T06:23:28;9.57;;;4.32;;
78156;SDS011;67400;49.360;8.266;2023-03-19T06:24:48;8.23;;;3.90;;
78156;SDS011;67400;49.360;8.266;2023-03-19T06:26:09;7.80;;;3.63;;
78156;SDS011;67400;49.360;8.266;2023-03-19T06:27:40;8.40;;;4.63;;
78156;SDS011;67400;49.360;8.266;2023-03-19T06:29:16;8.82;;;4.07;;
78156;SDS011;67400;49.360;8.266;2023-03-19T06:30:40;8.70;;;3.70;;
78156;SDS011;67400;49.360;8.266;2023-03-19T06:32:20;7.55;;;3.92;;
78156;SDS011;67400;49.360;8.266;2023-03-19T06:33:41;8.73;;;4.05;;
78156;SDS011;67400;49.360;8.266;2023-03-19T06:35:02;6.47;;;4.05;;
78156;SDS011;67400;49.360;8.266;2023-03-19T06:36:21;8.43;;;4.57;;
78156;SDS011;67400;49.360;8.266;2023-03-19T06:37:41;8.02;;;4.03;;
78156;SDS011;67400;49.360;8.266;2023-03-19T06:39:01;6.88;;;4.05;;
78156;SDS011;67400;49.360;8.266;2023-03-19T06:40:20;16.30;;;4.43;;
78156;SDS011;67400;49.360;8.266;2023-03-19T06:41:40;8.75;;;4.60;;
78156;SDS011;67400;49.360;8.266;2023-03-19T06:43:10;9.70;;;3.80;;
78156;SDS011;67400;49.360;8.266;2023-03-19T06:44:30;7.13;;;4.25;;
78156;SDS011;67400;49.360;8.266;2023-03-19T06:45:50;7.80;;;4.43;;
78156;SDS011;67400;49.360;8.266;2023-03-19T06:47:10;10.50;;;4.60;;
78156;SDS011;67400;49.360;8.266;2023-03-19T06:48:33;6.63;;;3.88;;
78156;SDS011;67400;49.360;8.266;2023-03-19T06:49:52;8.88;;;4.65;;
78156;SDS011;67400;49.360;8.266;2023-03-19T06:51:12;9.48;;;4.13;;
78156;SDS011;67400;49.360;8.266;2023-03-19T06:52:31;8.80;;;4.20;;
78156;SDS011;67400;49.360;8.266;2023-03-19T06:53:51;9.05;;;4.75;;
78156;SDS011;67400;49.360;8.266;2023-03-19T06:55:10;8.50;;;4.43;;
78156;SDS011;67400;49.360;8.266;2023-03-19T06:56:30;9.23;;;4.60;;
78156;SDS011;67400;49.360;8.266;2023-03-19T06:57:50;7.72;;;4.10;;
78156;SDS011;67400;49.360;8.266;2023-03-19T06:59:10;15.65;;;4.95;;
78156;SDS011;67400;49.360;8.266;2023-03-19T07:00:31;8.13;;;4.70;;
78156;SDS011;67400;49.360;8.266;2023-03-19T07:01:51;11.02;;;4.57;;
78156;SDS011;67400;49.360;8.266;2023-03-19T07:03:11;11.10;;;4.97;;
78156;SDS011;67400;49.360;8.266;2023-03-19T07:04:30;9.63;;;4.10;;
78156;SDS011;67400;49.360;8.266;2023-03-19T07:05:50;10.57;;;4.28;;
78156;SDS011;67400;49.360;8.266;2023-03-19T07:07:10;7.45;;;4.65;;
78156;SDS011;67400;49.360;8.266;2023-03-19T07:08:29;8.48;;;4.82;;
78156;SDS011;67400;49.360;8.266;2023-03-19T07:09:49;9.93;;;4.65;;
78156;SDS011;67400;49.360;8.266;2023-03-19T07:11:09;10.18;;;4.60;;
78156;SDS011;67400;49.360;8.266;2023-03-19T07:12:29;7.88;;;4.28;;
78156;SDS011;67400;49.360;8.266;2023-03-19T07:13:49;8.25;;;5.03;;
78156;SDS011;67400;49.360;8.266;2023-03-19T07:15:09;11.30;;;4.63;;
78156;SDS011;67400;49.360;8.266;2023-03-19T07:16:28;9.00;;;4.80;;
78156;SDS011;67400;49.360;8.266;2023-03-19T07:17:48;8.32;;;4.55;;
78156;SDS011;67400;49.360;8.266;2023-03-19T07:19:08;12.60;;;4.53;;
78156;SDS011;67400;49.360;8.266;2023-03-19T07:20:27;8.18;;;4.15;;
78156;SDS011;67400;49.360;8.266;2023-03-19T07:21:47;10.10;;;4.70;;
78156;SDS011;67400;49.360;8.266;2023-03-19T07:23:07;8.18;;;4.75;;
78156;SDS011;67400;49.360;8.266;2023-03-19T07:24:26;10.70;;;4.55;;
78156;SDS011;67400;49.360;8.266;2023-03-19T07:25:46;10.35;;;4.38;;
78156;SDS011;67400;49.360;8.266;2023-03-19T07:27:06;6.95;;;4.43;;
78156;SDS011;67400;49.360;8.266;2023-03-19T07:28:25;13.05;;;4.78;;
78156;SDS011;67400;49.360;8.266;2023-03-19T07:29:45;7.35;;;4.57;;
78156;SDS011;67400;49.360;8.266;2023-03-19T07:31:04;8.70;;;4.60;;
78156;SDS011;67400;49.360;8.266;2023-03-19T07:32:24;7.28;;;4.90;;
78156;SDS011;67400;49.360;8.266;2023-03-19T07:33:44;9.18;;;4.80;;
78156;SDS011;67400;49.360;8.266;2023-03-19T07:35:07;9.88;;;4.65;;
78156;SDS011;67400;49.360;8.266;2023-03-19T07:36:27;10.73;;;5.05;;
78156;SDS011;67400;49.360;8.266;2023-03-19T07:37:47;11.75;;;5.65;;
78156;SDS011;67400;49.360;8.266;2023-03-19T07:39:06;9.93;;;4.97;;
78156;SDS011;67400;49.360;8.266;2023-03-19T07:40:26;11.38;;;5.22;;
78156;SDS011;67400;49.360;8.266;2023-03-19T07:41:46;9.50;;;4.55;;
78156;SDS011;67400;49.360;8.266;2023-03-19T07:43:07;9.48;;;4.57;;
78156;SDS011;67400;49.360;8.266;2023-03-19T07:44:26;10.27;;;4.38;;
78156;SDS011;67400;49.360;8.266;2023-03-19T07:45:46;8.25;;;4.13;;
78156;SDS011;67400;49.360;8.266;2023-03-19T07:47:06;10.27;;;4.68;;
78156;SDS011;67400;49.360;8.266;2023-03-19T07:48:26;9.82;;;4.45;;
78156;SDS011;67400;49.360;8.266;2023-03-19T07:49:46;8.82;;;4.82;;
78156;SDS011;67400;49.360;8.266;2023-03-19T07:51:05;8.85;;;4.38;;
78156;SDS011;67400;49.360;8.266;2023-03-19T07:52:25;7.97;;;4.10;;
78156;SDS011;67400;49.360;8.266;2023-03-19T07:53:45;7.20;;;4.30;;
78156;SDS011;67400;49.360;8.266;2023-03-19T07:55:05;8.40;;;5.18;;
78156;SDS011;67400;49.360;8.266;2023-03-19T07:56:25;10.57;;;4.80;;
78156;SDS011;67400;49.360;8.266;2023-03-19T07:57:45;7.82;;;4.45;;
78156;SDS011;67400;49.360;8.266;2023-03-19T07:59:05;9.75;;;4.47;;
78156;SDS011;67400;49.360;8.266;2023-03-19T08:00:24;8.18;;;4.50;;
78156;SDS011;67400;49.360;8.266;2023-03-19T08:01:45;6.78;;;4.15;;
78156;SDS011;67400;49.360;8.266;2023-03-19T08:03:04;10.23;;;4.30;;
78156;SDS011;67400;49.360;8.266;2023-03-19T08:04:24;7.45;;;4.13;;
78156;SDS011;67400;49.360;8.266;2023-03-19T08:05:46;9.15;;;3.92;;
78156;SDS011;67400;49.360;8.266;2023-03-19T08:07:07;7.22;;;4.00;;
78156;SDS011;67400;49.360;8.266;2023-03-19T08:08:30;8.20;;;3.78;;
78156;SDS011;67400;49.360;8.266;2023-03-19T08:09:52;10.40;;;3.80;;
78156;SDS011;67400;49.360;8.266;2023-03-19T08:11:12;7.70;;;4.47;;
78156;SDS011;67400;49.360;8.266;2023-03-19T08:12:32;8.82;;;4.40;;
78156;SDS011;67400;49.360;8.266;2023-03-19T08:13:57;11.35;;;3.95;;
78156;SDS011;67400;49.360;8.266;2023-03-19T08:15:16;10.75;;;4.00;;
78156;SDS011;67400;49.360;8.266;2023-03-19T08:16:36;9.75;;;4.43;;
78156;SDS011;67400;49.360;8.266;2023-03-19T08:17:56;9.40;;;3.90;;